Time;durP1;ratioP1;P1;durP2;ratioP2;P2;SDS_P1;SDS_P2;PMS_P1;PMS_P2;Temp;Humidity;BMP_temperature;BMP_pressure;BME280_temperature;BME280_humidity;BME280_pressure;Samples;Min_cycle;Max_cycle;Signal;HPM_P1;HPM_P2
2023/06/07 00:01:08;;;;;;;2.35;1.80;;;26.00;44.30;;;;;;5036293;28;20064;-65
2023/06/07 00:03:34;;;;;;;2.42;1.73;;;26.00;44.30;;;;;;5038557;28;20075;-65
2023/06/07 00:06:03;;;;;;;2.60;1.80;;;26.00;44.30;;;;;;5039474;28;20072;-65
2023/06/07 00:08:29;;;;;;;2.63;1.90;;;26.00;44.20;;;;;;5040937;28;20435;-65
2023/06/07 00:10:56;;;;;;;2.88;1.85;;;26.00;44.20;;;;;;5038115;28;20021;-65
2023/06/07 00:13:22;;;;;;;2.38;1.77;;;26.00;44.20;;;;;;5036994;28;20044;-65
2023/06/07 00:15:47;;;;;;;2.38;1.52;;;26.00;44.30;;;;;;5039232;28;20509;-65
2023/06/07 00:18:15;;;;;;;2.90;1.98;;;26.00;44.20;;;;;;5038497;28;20492;-65
2023/06/07 00:20:44;;;;;;;2.65;1.92;;;26.00;44.20;;;;;;5040460;28;20075;-66
2023/06/07 00:23:13;;;;;;;2.83;1.85;;;26.00;44.20;;;;;;5037975;28;20021;-65
2023/06/07 00:25:39;;;;;;;2.60;2.00;;;25.90;44.20;;;;;;5040330;28;20039;-66
2023/06/07 00:28:04;;;;;;;2.22;1.73;;;26.00;44.30;;;;;;5034204;28;20108;-65
2023/06/07 00:30:30;;;;;;;2.38;1.73;;;25.90;44.20;;;;;;5037441;28;20143;-65
2023/06/07 00:32:56;;;;;;;2.85;1.92;;;25.90;44.30;;;;;;5021094;28;20477;-65
2023/06/07 00:35:22;;;;;;;2.92;2.00;;;25.90;44.20;;;;;;5037772;28;20424;-65
2023/06/07 00:37:47;;;;;;;2.22;1.65;;;25.90;44.20;;;;;;5038460;28;20029;-65
2023/06/07 00:40:13;;;;;;;2.42;1.67;;;25.90;44.30;;;;;;5021776;28;20128;-65
2023/06/07 00:42:38;;;;;;;2.40;1.73;;;25.90;44.30;;;;;;5037213;28;20033;-65
2023/06/07 00:45:05;;;;;;;2.88;1.80;;;25.80;44.20;;;;;;5040290;28;20049;-65
2023/06/07 00:47:31;;;;;;;2.40;1.90;;;25.80;44.20;;;;;;5004356;28;20049;-65
2023/06/07 00:49:57;;;;;;;2.67;1.90;;;25.80;44.30;;;;;;5040853;28;20338;-65
2023/06/07 00:52:23;;;;;;;2.80;1.73;;;25.80;44.30;;;;;;5037039;28;20080;-65
2023/06/07 00:54:49;;;;;;;2.42;1.77;;;25.80;44.20;;;;;;5038543;28;20029;-66
2023/06/07 00:57:16;;;;;;;2.38;1.70;;;25.80;44.30;;;;;;5034345;28;20033;-65
2023/06/07 00:59:42;;;;;;;2.40;1.80;;;25.80;44.30;;;;;;5034541;28;20389;-65
2023/06/07 01:02:08;;;;;;;2.20;1.60;;;25.80;44.30;;;;;;5021689;28;20021;-65
2023/06/07 01:04:34;;;;;;;2.53;1.60;;;25.80;44.30;;;;;;5038945;28;20036;-65
2023/06/07 01:07:02;;;;;;;2.05;1.58;;;25.80;44.30;;;;;;5035654;28;20041;-65
2023/06/07 01:09:29;;;;;;;1.90;1.67;;;25.80;44.30;;;;;;5035780;28;20029;-65
2023/06/07 01:11:56;;;;;;;2.50;1.83;;;25.70;44.20;;;;;;5039255;28;20017;-65
2023/06/07 01:14:23;;;;;;;2.60;1.85;;;25.70;44.30;;;;;;5035475;28;20072;-66
2023/06/07 01:16:51;;;;;;;2.70;1.90;;;25.80;44.40;;;;;;5036230;28;20036;-65
2023/06/07 01:19:23;;;;;;;2.30;1.60;;;25.70;44.30;;;;;;5034947;28;20103;-65
2023/06/07 01:21:59;;;;;;;2.63;1.80;;;25.70;44.30;;;;;;5035315;28;20033;-65
2023/06/07 01:24:24;;;;;;;1.85;1.50;;;25.70;44.30;;;;;;5037046;28;20103;-65
2023/06/07 01:26:57;;;;;;;2.42;1.77;;;25.70;44.40;;;;;;5005978;28;20061;-66
2023/06/07 01:29:25;;;;;;;2.05;1.60;;;25.70;44.40;;;;;;5037162;28;20040;-65
2023/06/07 01:31:53;;;;;;;2.08;1.60;;;25.70;44.40;;;;;;5035188;28;20025;-65
2023/06/07 01:34:20;;;;;;;2.58;1.80;;;25.70;44.40;;;;;;5040151;28;20026;-65
2023/06/07 01:36:47;;;;;;;2.22;1.73;;;25.60;44.40;;;;;;5037976;28;20033;-65
2023/06/07 01:39:14;;;;;;;2.53;1.83;;;25.60;44.40;;;;;;5033062;28;20477;-65
2023/06/07 01:41:41;;;;;;;2.15;1.52;;;25.60;44.40;;;;;;5034673;28;20071;-65
2023/06/07 01:44:08;;;;;;;2.45;1.60;;;25.60;44.40;;;;;;5021017;28;20131;-65
2023/06/07 01:46:35;;;;;;;2.03;1.52;;;25.60;44.50;;;;;;5034728;28;20072;-65
2023/06/07 01:49:03;;;;;;;2.63;1.67;;;25.50;44.50;;;;;;5004862;28;20034;-65
2023/06/07 01:51:28;;;;;;;2.20;1.60;;;25.50;44.50;;;;;;5023101;28;20506;-65
2023/06/07 01:53:54;;;;;;;2.40;1.70;;;25.50;44.50;;;;;;5034199;28;20017;-65
2023/06/07 01:56:42;;;;;;;2.17;1.60;;;25.50;44.50;;;;;;5034592;28;20465;-65
2023/06/07 01:59:32;;;;;;;2.08;1.52;;;25.50;44.60;;;;;;5038661;28;20491;-65
2023/06/07 02:02:07;;;;;;;2.22;1.60;;;25.40;44.50;;;;;;5015639;28;20032;-66
2023/06/07 02:04:37;;;;;;;1.70;1.38;;;25.40;44.50;;;;;;5037598;28;20406;-65
2023/06/07 02:07:06;;;;;;;2.10;1.52;;;25.40;44.60;;;;;;5036747;28;20034;-65
2023/06/07 02:09:37;;;;;;;1.83;1.38;;;25.40;44.60;;;;;;5035430;28;20927;-65
2023/06/07 02:12:03;;;;;;;2.15;1.50;;;25.40;44.60;;;;;;5039616;28;20116;-65
2023/06/07 02:14:29;;;;;;;1.65;1.33;;;25.40;44.60;;;;;;5038547;28;20044;-65
2023/06/07 02:16:55;;;;;;;1.80;1.50;;;25.40;44.60;;;;;;5036417;28;20113;-65
2023/06/07 02:19:21;;;;;;;2.13;1.40;;;25.40;44.60;;;;;;5034712;28;20107;-65
2023/06/07 02:21:46;;;;;;;1.95;1.50;;;25.40;44.60;;;;;;5034977;28;20025;-65
2023/06/07 02:24:12;;;;;;;1.90;1.42;;;25.40;44.70;;;;;;5029840;28;20066;-65
2023/06/07 02:26:38;;;;;;;1.95;1.45;;;25.30;45.10;;;;;;5033540;28;20507;-65
2023/06/07 02:29:03;;;;;;;2.22;1.70;;;25.40;44.70;;;;;;5036447;28;20464;-65
2023/06/07 02:31:29;;;;;;;1.90;1.40;;;25.40;44.70;;;;;;5033213;28;20030;-65
2023/06/07 02:33:55;;;;;;;2.15;1.50;;;25.30;44.70;;;;;;5034844;28;20033;-65
2023/06/07 02:36:22;;;;;;;2.00;1.38;;;25.30;44.70;;;;;;5037278;28;20400;-65
2023/06/07 02:38:48;;;;;;;2.20;1.60;;;25.30;44.70;;;;;;5035739;28;20116;-65
2023/06/07 02:41:13;;;;;;;2.00;1.50;;;25.30;44.70;;;;;;5035416;28;20028;-65
2023/06/07 02:43:39;;;;;;;2.03;1.48;;;25.30;44.70;;;;;;5035039;28;20868;-65
2023/06/07 02:46:06;;;;;;;1.77;1.30;;;25.30;44.70;;;;;;5020938;28;20032;-65
2023/06/07 02:48:32;;;;;;;1.90;1.50;;;25.30;44.80;;;;;;5032280;28;20031;-65
2023/06/07 02:50:57;;;;;;;2.05;1.45;;;25.30;44.80;;;;;;5034770;28;20033;-65
2023/06/07 02:53:24;;;;;;;1.80;1.50;;;25.20;44.70;;;;;;5036714;28;20030;-65
2023/06/07 02:55:50;;;;;;;1.80;1.40;;;25.20;44.70;;;;;;5036174;28;20029;-65
2023/06/07 02:58:15;;;;;;;1.98;1.55;;;25.20;44.70;;;;;;5028879;28;20029;-65
2023/06/07 03:00:46;;;;;;;1.83;1.38;;;25.20;44.70;;;;;;5033785;28;20025;-66
2023/06/07 03:03:12;;;;;;;1.80;1.30;;;25.20;44.70;;;;;;5036291;28;20021;-65
2023/06/07 03:05:40;;;;;;;2.10;1.50;;;25.20;44.70;;;;;;5035177;28;20253;-65
2023/06/07 03:08:10;;;;;;;2.00;1.50;;;25.20;44.80;;;;;;5034300;28;20477;-65
2023/06/07 03:10:35;;;;;;;1.80;1.45;;;25.20;45.30;;;;;;5036402;28;20491;-65
2023/06/07 03:13:01;;;;;;;2.10;1.50;;;25.20;44.80;;;;;;5033913;28;20029;-65
2023/06/07 03:15:27;;;;;;;1.80;1.40;;;25.20;44.80;;;;;;5030659;28;20468;-65
2023/06/07 03:17:53;;;;;;;1.52;1.30;;;25.20;44.80;;;;;;5031588;28;20060;-65
2023/06/07 03:20:21;;;;;;;1.83;1.40;;;25.10;44.70;;;;;;5033031;28;20123;-65
2023/06/07 03:22:48;;;;;;;1.88;1.40;;;25.10;44.80;;;;;;5018042;28;20025;-65
2023/06/07 03:25:14;;;;;;;2.05;1.30;;;25.20;44.80;;;;;;5019860;28;20059;-65
2023/06/07 03:27:40;;;;;;;2.00;1.38;;;25.10;44.70;;;;;;5034099;28;20457;-65
2023/06/07 03:30:06;;;;;;;1.70;1.50;;;25.10;44.80;;;;;;5034717;28;20052;-65
2023/06/07 03:32:32;;;;;;;1.50;1.30;;;25.10;44.80;;;;;;5015497;28;20029;-65
2023/06/07 03:34:58;;;;;;;1.85;1.40;;;25.10;44.80;;;;;;5037413;28;20373;-65
2023/06/07 03:37:24;;;;;;;2.03;1.48;;;25.10;44.80;;;;;;5030223;28;20365;-65
2023/06/07 03:39:50;;;;;;;1.60;1.10;;;25.10;44.80;;;;;;5034469;28;20025;-65
2023/06/07 03:42:15;;;;;;;2.25;1.30;;;25.10;44.80;;;;;;5031144;28;20075;-65
2023/06/07 03:44:41;;;;;;;1.60;1.25;;;25.10;44.80;;;;;;5036233;28;20067;-65
2023/06/07 03:47:06;;;;;;;1.92;1.40;;;25.00;44.80;;;;;;5033917;28;20048;-65
2023/06/07 03:49:32;;;;;;;1.90;1.30;;;25.10;44.90;;;;;;5037027;28;20091;-65
2023/06/07 03:51:58;;;;;;;2.08;1.50;;;25.00;44.80;;;;;;5036819;28;20082;-65
2023/06/07 03:54:23;;;;;;;1.50;1.20;;;25.00;44.80;;;;;;5033684;28;20108;-65
2023/06/07 03:56:49;;;;;;;1.77;1.30;;;25.00;44.80;;;;;;5034151;28;20053;-65
2023/06/07 03:59:19;;;;;;;2.05;1.40;;;25.00;44.80;;;;;;5015051;28;20473;-65
2023/06/07 04:01:45;;;;;;;1.80;1.30;;;25.00;44.80;;;;;;5011964;28;20026;-65
2023/06/07 04:04:10;;;;;;;1.85;1.35;;;25.00;44.80;;;;;;5034939;28;20381;-65
2023/06/07 04:06:36;;;;;;;1.80;1.35;;;25.00;44.90;;;;;;5032505;28;20029;-65
2023/06/07 04:09:03;;;;;;;1.63;1.25;;;25.00;44.90;;;;;;5036041;28;20079;-65
2023/06/07 04:11:29;;;;;;;1.90;1.40;;;25.00;44.90;;;;;;5032806;28;20489;-65
2023/06/07 04:13:54;;;;;;;2.08;1.40;;;25.00;44.90;;;;;;5035154;28;20025;-65
2023/06/07 04:16:20;;;;;;;1.65;1.20;;;24.90;44.80;;;;;;5036941;28;20039;-65
2023/06/07 04:18:46;;;;;;;1.85;1.30;;;24.90;44.80;;;;;;5030142;28;20030;-65
2023/06/07 04:21:13;;;;;;;1.70;1.25;;;24.90;44.90;;;;;;5018888;28;20026;-65
2023/06/07 04:23:38;;;;;;;1.80;1.35;;;24.90;44.90;;;;;;5031783;28;20032;-65
2023/06/07 04:26:06;;;;;;;1.73;1.30;;;24.90;44.90;;;;;;5036437;28;20646;-65
2023/06/07 04:28:32;;;;;;;1.95;1.38;;;24.90;44.90;;;;;;5036256;28;20851;-65
2023/06/07 04:30:58;;;;;;;2.10;1.30;;;24.90;44.90;;;;;;5034020;28;20123;-65
2023/06/07 04:33:24;;;;;;;1.60;1.27;;;24.90;44.90;;;;;;5034947;28;20128;-65
2023/06/07 04:35:50;;;;;;;1.85;1.30;;;24.90;44.90;;;;;;5004866;28;20429;-65
2023/06/07 04:38:21;;;;;;;1.63;1.33;;;24.90;44.90;;;;;;5037984;28;20021;-65
2023/06/07 04:40:49;;;;;;;1.63;1.30;;;24.80;44.90;;;;;;5003741;28;20034;-65
2023/06/07 04:43:18;;;;;;;1.35;1.23;;;24.80;44.90;;;;;;5038750;28;20025;-65
2023/06/07 04:45:47;;;;;;;1.60;1.20;;;24.80;44.90;;;;;;5036975;28;20627;-65
2023/06/07 04:48:13;;;;;;;1.38;1.20;;;24.80;44.90;;;;;;5005750;28;20061;-65
2023/06/07 04:50:41;;;;;;;1.63;1.23;;;24.80;44.90;;;;;;5037043;28;20063;-65
2023/06/07 04:53:10;;;;;;;1.70;1.27;;;24.80;44.90;;;;;;5037966;28;20025;-65
2023/06/07 04:55:37;;;;;;;;;;;24.80;45.00;;;;;;5037753;28;20566;-65
2023/06/07 04:58:04;;;;;;;1.73;1.50;;;24.80;45.00;;;;;;5036455;28;19974;-65
2023/06/07 05:00:33;;;;;;;1.70;1.20;;;24.80;45.00;;;;;;5040761;28;20040;-64
2023/06/07 05:03:08;;;;;;;1.90;1.20;;;24.80;45.00;;;;;;5037154;28;20465;-63
2023/06/07 05:05:37;;;;;;;1.95;1.33;;;24.80;45.00;;;;;;5031941;28;20087;-63
2023/06/07 05:08:03;;;;;;;1.20;1.10;;;24.80;45.00;;;;;;5036779;28;20037;-63
2023/06/07 05:10:29;;;;;;;1.50;1.20;;;24.80;45.10;;;;;;5035839;28;20384;-63
2023/06/07 05:12:55;;;;;;;1.63;1.25;;;24.80;45.10;;;;;;5038081;28;20104;-63
2023/06/07 05:15:23;;;;;;;1.50;1.10;;;24.70;45.00;;;;;;5022307;28;20061;-63
2023/06/07 05:17:53;;;;;;;1.55;1.15;;;24.80;45.10;;;;;;5019245;28;20370;-63
2023/06/07 05:20:20;;;;;;;1.42;1.10;;;24.70;45.00;;;;;;5038052;28;20120;-63
2023/06/07 05:22:46;;;;;;;1.58;1.23;;;24.70;45.10;;;;;;5036413;28;20024;-63
2023/06/07 05:25:12;;;;;;;1.35;1.10;;;24.70;45.10;;;;;;5036204;28;20034;-63
2023/06/07 05:27:38;;;;;;;1.45;1.20;;;24.70;45.10;;;;;;5037769;28;20517;-63
2023/06/07 05:30:06;;;;;;;1.40;1.10;;;24.70;45.10;;;;;;5034580;28;20362;-63
2023/06/07 05:32:32;;;;;;;1.48;1.20;;;24.70;45.10;;;;;;5034683;28;20092;-63
2023/06/07 05:34:59;;;;;;;1.38;1.05;;;24.70;45.10;;;;;;5035884;28;20108;-63
2023/06/07 05:37:25;;;;;;;1.17;1.00;;;24.70;45.10;;;;;;5037638;28;20433;-63
2023/06/07 05:39:51;;;;;;;1.20;1.10;;;24.70;45.10;;;;;;5038078;28;20112;-63
2023/06/07 05:42:16;;;;;;;1.52;1.13;;;24.70;45.10;;;;;;5037548;28;20496;-63
2023/06/07 05:44:45;;;;;;;1.35;1.08;;;24.70;45.10;;;;;;5035885;28;20037;-63
2023/06/07 05:47:12;;;;;;;1.45;1.10;;;24.60;45.10;;;;;;5033719;28;20033;-63
2023/06/07 05:49:37;;;;;;;1.85;1.30;;;24.70;45.10;;;;;;5028718;28;20034;-63
2023/06/07 05:52:03;;;;;;;2.25;1.23;;;24.60;45.10;;;;;;5038025;28;20481;-63
2023/06/07 05:54:29;;;;;;;2.03;1.40;;;24.60;45.10;;;;;;5035034;28;20026;-63
2023/06/07 05:56:55;;;;;;;1.67;1.25;;;24.60;45.10;;;;;;5038949;28;20033;-63
2023/06/07 05:59:21;;;;;;;1.90;1.27;;;24.60;45.10;;;;;;5037279;28;20163;-63
2023/06/07 06:01:47;;;;;;;1.27;1.10;;;24.60;45.10;;;;;;5021881;28;20040;-63
2023/06/07 06:04:13;;;;;;;1.27;1.10;;;24.60;45.10;;;;;;5019429;28;20025;-63
2023/06/07 06:06:40;;;;;;;1.33;1.10;;;24.60;45.20;;;;;;5037488;28;20032;-63
2023/06/07 06:09:05;;;;;;;1.40;1.10;;;24.60;45.20;;;;;;5036421;28;20466;-63
2023/06/07 06:11:31;;;;;;;1.40;0.98;;;24.60;45.20;;;;;;5035630;28;20013;-63
2023/06/07 06:13:56;;;;;;;1.75;1.20;;;24.60;45.20;;;;;;5035879;28;20064;-64
2023/06/07 06:16:22;;;;;;;1.65;1.20;;;24.60;45.20;;;;;;5035211;28;20030;-63
2023/06/07 06:18:48;;;;;;;1.38;1.10;;;24.60;45.20;;;;;;5035057;28;20025;-63
2023/06/07 06:21:14;;;;;;;1.17;1.08;;;24.50;45.10;;;;;;5034444;28;20040;-63
2023/06/07 06:23:40;;;;;;;1.52;1.10;;;24.60;45.20;;;;;;5035069;28;20025;-64
2023/06/07 06:26:06;;;;;;;1.48;1.02;;;24.50;45.20;;;;;;5033566;28;20334;-63
2023/06/07 06:28:31;;;;;;;1.60;1.10;;;24.60;45.30;;;;;;5036152;28;20496;-63
2023/06/07 06:30:57;;;;;;;1.35;1.05;;;24.50;45.20;;;;;;5035525;28;20056;-63
2023/06/07 06:33:23;;;;;;;1.20;1.10;;;24.60;45.30;;;;;;5035370;28;20455;-64
2023/06/07 06:35:48;;;;;;;1.50;1.10;;;24.60;45.20;;;;;;5036644;28;20555;-63
2023/06/07 06:38:14;;;;;;;1.33;1.00;;;24.50;45.20;;;;;;5003143;28;20060;-63
2023/06/07 06:40:40;;;;;;;1.40;1.10;;;24.60;45.30;;;;;;5034606;28;20038;-63
2023/06/07 06:43:05;;;;;;;1.42;1.15;;;24.60;45.80;;;;;;5034922;28;20036;-64
2023/06/07 06:45:31;;;;;;;1.17;1.05;;;24.50;45.30;;;;;;5033706;28;20175;-63
2023/06/07 06:47:58;;;;;;;1.60;1.10;;;24.50;45.30;;;;;;5019550;28;20029;-63
2023/06/07 06:50:24;;;;;;;1.33;1.02;;;24.50;45.30;;;;;;5033238;28;20021;-63
2023/06/07 06:52:50;;;;;;;1.10;1.00;;;24.50;45.30;;;;;;5035069;28;20024;-64
2023/06/07 06:55:17;;;;;;;1.23;1.00;;;24.50;45.40;;;;;;5033744;28;20034;-64
2023/06/07 06:57:42;;;;;;;1.60;1.17;;;24.50;45.30;;;;;;5020735;28;20029;-64
2023/06/07 07:00:09;;;;;;;1.38;1.08;;;24.50;45.40;;;;;;5039457;28;20027;-63
2023/06/07 07:02:35;;;;;;;1.10;1.00;;;24.50;45.40;;;;;;5037250;28;20120;-64
2023/06/07 07:05:01;;;;;;;1.17;1.00;;;24.50;45.40;;;;;;5015974;28;20146;-63
2023/06/07 07:07:27;;;;;;;1.35;1.10;;;24.50;45.40;;;;;;5032785;28;20071;-63
2023/06/07 07:09:53;;;;;;;1.00;0.90;;;24.50;45.40;;;;;;5034486;28;20090;-63
2023/06/07 07:12:21;;;;;;;1.17;1.00;;;24.50;45.40;;;;;;5035584;28;20661;-64
2023/06/07 07:14:47;;;;;;;1.33;1.00;;;24.50;45.50;;;;;;5037420;28;20148;-64
2023/06/07 07:17:12;;;;;;;1.10;1.00;;;24.50;45.50;;;;;;5020186;28;20112;-63
2023/06/07 07:19:38;;;;;;;1.30;1.00;;;24.50;46.10;;;;;;5032945;28;20040;-64
2023/06/07 07:22:04;;;;;;;1.50;1.10;;;24.50;45.60;;;;;;5036441;28;20029;-64
2023/06/07 07:24:30;;;;;;;1.30;1.10;;;24.50;45.60;;;;;;5036640;28;20025;-63
2023/06/07 07:26:56;;;;;;;1.42;1.20;;;24.50;45.60;;;;;;5035990;28;20370;-63
2023/06/07 07:29:21;;;;;;;1.45;1.10;;;24.50;45.60;;;;;;5035069;28;20772;-63
2023/06/07 07:31:47;;;;;;;1.50;1.10;;;24.50;45.60;;;;;;5031901;28;20489;-63
2023/06/07 07:34:13;;;;;;;1.30;1.00;;;24.50;45.70;;;;;;5032490;28;20057;-63
2023/06/07 07:36:39;;;;;;;1.50;1.10;;;24.50;45.70;;;;;;5033509;28;20025;-64
2023/06/07 07:39:05;;;;;;;1.40;1.00;;;24.50;45.70;;;;;;5018675;28;20098;-63
2023/06/07 07:41:34;;;;;;;1.10;1.00;;;24.50;45.80;;;;;;5034600;28;20061;-63
2023/06/07 07:44:01;;;;;;;1.30;1.02;;;24.50;45.80;;;;;;5033118;28;20388;-64
2023/06/07 07:46:27;;;;;;;2.08;1.15;;;24.50;45.80;;;;;;5017818;28;20483;-63
2023/06/07 07:48:52;;;;;;;2.08;1.10;;;24.50;45.80;;;;;;5015298;28;20439;-63
2023/06/07 07:51:19;;;;;;;1.60;1.10;;;24.50;45.90;;;;;;5033469;28;20034;-63
2023/06/07 07:53:45;;;;;;;2.83;1.55;;;24.40;45.90;;;;;;5037192;28;20048;-63
2023/06/07 07:56:11;;;;;;;1.23;1.05;;;24.40;45.90;;;;;;5017346;28;20484;-64
2023/06/07 07:58:37;;;;;;;1.33;1.10;;;24.40;45.90;;;;;;5014614;28;20032;-63
2023/06/07 08:01:03;;;;;;;1.83;1.20;;;24.40;45.90;;;;;;5019237;28;20037;-63
2023/06/07 08:03:29;;;;;;;1.58;1.20;;;24.40;45.90;;;;;;5034783;28;20033;-63
2023/06/07 08:05:55;;;;;;;1.40;1.20;;;24.40;46.00;;;;;;5032712;28;20034;-63
2023/06/07 08:08:21;;;;;;;1.38;1.10;;;24.40;45.90;;;;;;5039224;28;20041;-64
2023/06/07 08:10:48;;;;;;;1.90;1.30;;;24.40;45.90;;;;;;5038448;28;20481;-63
2023/06/07 08:13:14;;;;;;;1.40;1.13;;;24.40;45.90;;;;;;5037528;28;20014;-63
2023/06/07 08:15:40;;;;;;;1.35;1.10;;;24.40;45.90;;;;;;5033077;28;20084;-63
2023/06/07 08:18:06;;;;;;;1.98;1.10;;;24.40;45.90;;;;;;5039467;28;20103;-64
2023/06/07 08:20:32;;;;;;;1.63;1.15;;;24.40;46.10;;;;;;5035545;28;20037;-63
2023/06/07 08:22:58;;;;;;;1.30;1.00;;;24.40;45.90;;;;;;5040816;28;20057;-63
2023/06/07 08:25:23;;;;;;;1.40;1.10;;;24.40;45.80;;;;;;5040730;28;20037;-64
2023/06/07 08:27:49;;;;;;;1.27;1.00;;;24.40;45.80;;;;;;5035656;28;20111;-63
2023/06/07 08:30:15;;;;;;;1.30;1.02;;;24.40;45.90;;;;;;5036981;28;20105;-64
2023/06/07 08:32:42;;;;;;;1.20;1.00;;;24.40;45.90;;;;;;5039770;28;20032;-64
2023/06/07 08:35:09;;;;;;;1.33;1.02;;;24.40;45.90;;;;;;5038220;28;20017;-64
2023/06/07 08:37:35;;;;;;;1.35;1.00;;;24.40;45.90;;;;;;5040279;28;20064;-64
2023/06/07 08:40:01;;;;;;;1.65;1.17;;;24.40;45.90;;;;;;5036329;28;20068;-64
2023/06/07 08:42:26;;;;;;;1.27;1.00;;;24.40;45.90;;;;;;5034200;28;20540;-63
2023/06/07 08:44:52;;;;;;;1.58;1.10;;;24.40;45.90;;;;;;5036895;28;20034;-64
2023/06/07 08:47:22;;;;;;;1.40;1.10;;;24.40;45.90;;;;;;5038194;28;20040;-61
2023/06/07 08:49:53;;;;;;;1.42;1.10;;;24.40;45.90;;;;;;5020309;28;20115;-64
2023/06/07 08:52:19;;;;;;;1.10;0.90;;;24.30;45.90;;;;;;5037578;28;20364;-64
2023/06/07 08:54:47;;;;;;;1.73;1.10;;;24.40;45.90;;;;;;5036604;28;20108;-64
2023/06/07 08:57:16;;;;;;;1.45;1.10;;;24.40;45.90;;;;;;5035078;28;20037;-63
2023/06/07 08:59:45;;;;;;;1.52;1.10;;;24.40;45.90;;;;;;5036679;28;20022;-64
2023/06/07 09:02:12;;;;;;;1.60;1.17;;;24.40;45.90;;;;;;5033274;28;20489;-63
2023/06/07 09:04:40;;;;;;;1.30;1.10;;;24.40;45.90;;;;;;5038321;28;20108;-63
2023/06/07 09:07:07;;;;;;;1.90;1.20;;;24.30;45.90;;;;;;5020909;28;20504;-63
2023/06/07 09:09:35;;;;;;;1.55;1.10;;;24.40;45.90;;;;;;5035313;28;20144;-64
2023/06/07 09:12:00;;;;;;;1.27;1.00;;;24.40;46.00;;;;;;5036990;28;20039;-63
2023/06/07 09:14:28;;;;;;;1.30;1.00;;;24.30;45.90;;;;;;5022956;28;20029;-64
2023/06/07 09:16:59;;;;;;;1.48;1.10;;;24.40;46.00;;;;;;5021026;28;20025;-64
2023/06/07 09:19:38;;;;;;;1.20;1.10;;;24.40;46.00;;;;;;5035900;28;20072;-64
2023/06/07 09:22:06;;;;;;;1.40;1.00;;;24.40;46.00;;;;;;5034277;28;20048;-64
2023/06/07 09:24:32;;;;;;;1.40;1.00;;;24.40;45.90;;;;;;5038120;28;20039;-63
2023/06/07 09:27:03;;;;;;;1.40;1.10;;;24.40;46.00;;;;;;5037145;28;20112;-64
2023/06/07 09:29:37;;;;;;;2.08;1.20;;;24.40;46.00;;;;;;5037163;28;20083;-63
2023/06/07 09:32:21;;;;;;;1.27;0.88;;;24.40;46.00;;;;;;5038183;28;20088;-63
2023/06/07 09:34:48;;;;;;;1.20;1.00;;;24.40;46.00;;;;;;5002822;28;20022;-63
2023/06/07 09:37:16;;;;;;;1.45;1.05;;;24.40;46.00;;;;;;5035534;28;20025;-64
2023/06/07 09:39:42;;;;;;;1.00;0.90;;;24.40;46.00;;;;;;5037747;28;20425;-64
2023/06/07 09:42:15;;;;;;;1.45;1.10;;;24.40;46.10;;;;;;5036522;28;20032;-63
2023/06/07 09:44:41;;;;;;;1.08;0.98;;;24.40;46.10;;;;;;5030642;28;20037;-63
2023/06/07 09:47:19;;;;;;;1.33;1.10;;;24.40;46.60;;;;;;5031967;28;20030;-63
2023/06/07 09:49:44;;;;;;;1.17;1.00;;;24.40;46.10;;;;;;5017656;28;20037;-64
2023/06/07 09:52:15;;;;;;;1.50;1.13;;;24.40;46.10;;;;;;5036303;28;20112;-64
2023/06/07 09:54:45;;;;;;;1.30;1.08;;;24.40;46.10;;;;;;5032817;28;20380;-64
2023/06/07 09:57:26;;;;;;;1.50;1.10;;;24.40;46.10;;;;;;5017748;28;20508;-64
2023/06/07 09:59:58;;;;;;;1.30;0.93;;;24.40;46.10;;;;;;5036002;28;20436;-64
2023/06/07 10:02:29;;;;;;;1.05;0.95;;;24.40;46.10;;;;;;5036287;28;20036;-63
2023/06/07 10:04:56;;;;;;;1.38;0.98;;;24.40;46.10;;;;;;5034808;28;20028;-62
2023/06/07 10:07:23;;;;;;;1.73;1.25;;;24.40;46.10;;;;;;5021385;28;20033;-64
2023/06/07 10:09:57;;;;;;;1.27;1.00;;;24.40;46.10;;;;;;5036018;28;20029;-64
2023/06/07 10:12:29;;;;;;;1.35;1.02;;;24.40;46.10;;;;;;5035769;28;20108;-63
2023/06/07 10:14:54;;;;;;;1.23;0.90;;;24.40;46.10;;;;;;5035869;28;20028;-64
2023/06/07 10:17:28;;;;;;;1.20;1.00;;;24.40;46.10;;;;;;5034640;28;20356;-63
2023/06/07 10:19:59;;;;;;;1.10;1.00;;;24.40;46.10;;;;;;5033710;28;21194;-64
2023/06/07 10:22:32;;;;;;;1.05;0.90;;;24.40;46.10;;;;;;5035843;28;20021;-63
2023/06/07 10:25:16;;;;;;;1.35;1.00;;;24.40;46.10;;;;;;5035046;28;20045;-64
2023/06/07 10:27:54;;;;;;;1.13;0.90;;;24.40;46.20;;;;;;5031660;28;20014;-63
2023/06/07 10:30:22;;;;;;;1.05;0.90;;;24.40;46.10;;;;;;5034132;28;20033;-63
2023/06/07 10:32:48;;;;;;;1.23;1.00;;;24.40;46.10;;;;;;5033471;28;20155;-64
2023/06/07 10:35:15;;;;;;;0.90;0.80;;;24.40;46.10;;;;;;5035562;28;20032;-64
2023/06/07 10:37:43;;;;;;;1.00;0.90;;;24.40;46.10;;;;;;5034836;28;20134;-64
2023/06/07 10:40:14;;;;;;;1.10;1.00;;;24.40;46.20;;;;;;5035854;28;20041;-64
2023/06/07 10:42:42;;;;;;;1.00;0.90;;;24.50;46.20;;;;;;5035480;28;20025;-63
2023/06/07 10:45:15;;;;;;;1.00;0.90;;;24.40;46.10;;;;;;5034466;28;20041;-63
2023/06/07 10:47:42;;;;;;;1.25;0.82;;;24.50;46.10;;;;;;5037039;28;20021;-64
2023/06/07 10:50:08;;;;;;;1.27;0.90;;;24.50;46.10;;;;;;5038275;28;20373;-63
2023/06/07 10:52:53;;;;;;;1.00;0.90;;;24.50;46.10;;;;;;5019060;28;20033;-63
2023/06/07 10:55:26;;;;;;;1.00;0.90;;;24.40;46.10;;;;;;5040168;28;20029;-64
2023/06/07 10:57:53;;;;;;;1.35;1.10;;;24.50;46.10;;;;;;5031108;28;20029;-63
2023/06/07 11:00:33;;;;;;;1.20;0.90;;;24.40;46.10;;;;;;5037932;28;20538;-68
2023/06/07 11:03:05;;;;;;;1.80;1.05;;;24.50;46.10;;;;;;5034389;28;20591;-66
2023/06/07 11:06:05;;;;;;;1.40;1.05;;;24.50;46.20;;;;;;5032434;28;20036;-65
2023/06/07 11:08:36;;;;;;;1.30;1.00;;;24.50;46.30;;;;;;4981321;28;20116;-65
2023/06/07 11:11:23;;;;;;;2.92;0.95;;;24.50;46.20;;;;;;5034641;28;20024;-65
2023/06/07 11:13:54;;;;;;;1.17;0.95;;;24.50;46.20;;;;;;4999689;28;20083;-65
2023/06/07 11:16:23;;;;;;;1.25;0.80;;;24.50;46.20;;;;;;5034244;28;20021;-65
2023/06/07 11:18:52;;;;;;;0.98;0.80;;;24.50;46.20;;;;;;5031976;28;20405;-65
2023/06/07 11:21:18;;;;;;;;;;;24.50;46.20;;;;;;5030613;28;20111;-65
2023/06/07 11:23:44;;;;;;;1.02;0.80;;;24.50;46.20;;;;;;5017259;28;20000;-65
2023/06/07 11:26:12;;;;;;;0.90;0.82;;;24.50;46.20;;;;;;5016502;28;20128;-65
2023/06/07 11:28:41;;;;;;;0.85;0.82;;;24.50;46.20;;;;;;5018536;28;20362;-65
2023/06/07 11:31:08;;;;;;;;;;;24.50;46.20;;;;;;5017740;28;20477;-65
2023/06/07 11:33:34;;;;;;;1.30;0.90;;;24.50;46.30;;;;;;5034723;28;19940;-65
2023/06/07 11:36:01;;;;;;;0.90;0.90;;;24.50;46.20;;;;;;5030767;28;20252;-65
2023/06/07 11:38:26;;;;;;;1.27;0.90;;;24.50;46.20;;;;;;5013898;28;20113;-65
2023/06/07 11:40:53;;;;;;;1.27;0.90;;;24.50;46.20;;;;;;5034631;28;20518;-65
2023/06/07 11:43:24;;;;;;;1.10;0.90;;;24.50;46.20;;;;;;5035861;28;20028;-65
2023/06/07 11:45:50;;;;;;;1.00;0.90;;;24.50;46.20;;;;;;5038797;28;20094;-65
2023/06/07 11:48:16;;;;;;;0.98;0.90;;;24.50;46.20;;;;;;5039889;28;20040;-65
2023/06/07 11:50:47;;;;;;;1.48;0.80;;;24.50;46.20;;;;;;5034653;28;20021;-65
2023/06/07 11:53:13;;;;;;;1.67;1.10;;;24.50;46.20;;;;;;5038739;28;20017;-65
2023/06/07 11:55:39;;;;;;;1.35;1.00;;;24.50;46.20;;;;;;5036600;28;20524;-65
2023/06/07 11:58:05;;;;;;;0.90;0.85;;;24.50;46.20;;;;;;5040141;28;20052;-65
2023/06/07 12:00:33;;;;;;;1.00;0.90;;;24.50;46.20;;;;;;5041648;28;20433;-65
2023/06/07 12:03:00;;;;;;;1.02;0.88;;;24.50;46.20;;;;;;5038480;28;20060;-65
2023/06/07 12:05:35;;;;;;;1.30;0.90;;;24.50;46.20;;;;;;5038908;28;20469;-65
2023/06/07 12:08:04;;;;;;;1.30;1.00;;;24.50;46.20;;;;;;5038971;28;20392;-68
2023/06/07 12:10:30;;;;;;;1.95;1.02;;;24.50;46.20;;;;;;5037922;28;20026;-65
2023/06/07 12:13:16;;;;;;;1.13;0.90;;;24.50;46.30;;;;;;5037340;28;20017;-65
2023/06/07 12:15:47;;;;;;;1.40;1.00;;;24.50;46.30;;;;;;5039450;28;20013;-64
2023/06/07 12:18:14;;;;;;;1.23;0.90;;;24.50;46.20;;;;;;5039179;28;20480;-64
2023/06/07 12:20:44;;;;;;;1.23;0.93;;;24.50;46.10;;;;;;5018863;28;20044;-64
2023/06/07 12:23:11;;;;;;;1.70;0.90;;;24.50;46.10;;;;;;5036574;28;20113;-64
2023/06/07 12:25:41;;;;;;;1.23;1.00;;;24.50;46.60;;;;;;5006814;28;20507;-64
2023/06/07 12:28:09;;;;;;;1.45;1.00;;;24.50;46.10;;;;;;5039120;28;20037;-64
2023/06/07 12:30:40;;;;;;;1.02;0.93;;;24.60;46.10;;;;;;5037083;28;20468;-64
2023/06/07 12:33:13;;;;;;;1.00;0.80;;;24.60;46.10;;;;;;5037902;28;20021;-64
2023/06/07 12:35:40;;;;;;;1.00;0.80;;;24.50;46.00;;;;;;5035504;28;20556;-64
2023/06/07 12:38:06;;;;;;;1.33;1.00;;;24.50;46.00;;;;;;5039509;28;20135;-64
2023/06/07 12:40:32;;;;;;;1.17;0.98;;;24.60;46.00;;;;;;5041670;28;20485;-64
2023/06/07 12:42:58;;;;;;;1.40;0.95;;;24.60;46.00;;;;;;5040566;28;20429;-64
2023/06/07 12:45:24;;;;;;;1.38;0.95;;;24.60;46.00;;;;;;5041221;28;20100;-64
2023/06/07 12:47:50;;;;;;;1.55;1.02;;;24.60;46.00;;;;;;5036841;28;20032;-64
2023/06/07 12:50:17;;;;;;;1.08;0.90;;;24.60;46.00;;;;;;5022059;28;20030;-64